createdAt,value
2022-08-10T00:01:51.361Z,3.15
2022-08-10T00:04:24.535Z,3.15
2022-08-10T00:06:54.675Z,2.95
2022-08-10T00:09:23.029Z,3.25
2022-08-10T00:11:52.197Z,2.80
2022-08-10T00:14:19.874Z,3.20
2022-08-10T00:16:48.019Z,2.70
2022-08-10T00:19:16.594Z,2.92
2022-08-10T00:21:47.469Z,2.50
2022-08-10T00:24:15.449Z,2.50
2022-08-10T00:27:52.616Z,2.83
2022-08-10T00:29:32.196Z,2.70
2022-08-10T00:32:00.063Z,2.38
2022-08-10T00:34:35.189Z,1.98
2022-08-10T00:37:03.066Z,2.00
2022-08-10T00:39:36.426Z,1.70
2022-08-10T00:42:13.300Z,1.70
2022-08-10T00:44:49.090Z,1.65
2022-08-10T00:47:36.054Z,1.50
2022-08-10T00:50:08.951Z,1.50
2022-08-10T00:52:39.334Z,1.60
2022-08-10T00:55:08.751Z,1.30
2022-08-10T00:57:36.710Z,1.50
2022-08-10T01:00:06.232Z,1.38
2022-08-10T01:02:34.330Z,1.38
2022-08-10T01:05:09.664Z,1.42
2022-08-10T01:10:38.852Z,1.42
2022-08-10T01:13:06.574Z,1.30
2022-08-10T01:15:43.320Z,1.30
2022-08-10T01:18:21.788Z,1.23
2022-08-10T01:21:04.354Z,1.40
2022-08-10T01:24:15.847Z,1.35
2022-08-10T01:27:07.485Z,1.35
2022-08-10T01:30:00.989Z,1.35
2022-08-10T01:33:01.478Z,1.10
2022-08-10T01:36:08.247Z,1.15
2022-08-10T01:38:50.093Z,1.27
2022-08-10T01:41:26.486Z,1.42
2022-08-10T01:44:15.258Z,1.40
2022-08-10T01:46:56.595Z,1.30
2022-08-10T01:49:26.631Z,1.50
2022-08-10T01:52:00.626Z,1.30
2022-08-10T01:54:30.302Z,1.30
2022-08-10T01:57:00.420Z,1.15
2022-08-10T01:59:32.309Z,1.30
2022-08-10T02:02:12.099Z,1.40
2022-08-10T02:04:41.921Z,1.30
2022-08-10T02:07:19.486Z,1.30
2022-08-10T02:09:51.679Z,1.30
2022-08-10T02:12:31.689Z,1.30
2022-08-10T02:15:10.857Z,1.10
2022-08-10T02:17:57.295Z,1.30
2022-08-10T02:20:39.981Z,1.30
2022-08-10T02:23:11.778Z,1.20
2022-08-10T02:25:43.641Z,1.42
2022-08-10T02:28:29.917Z,1.20
2022-08-10T02:31:06.176Z,1.67
2022-08-10T02:33:45.507Z,1.20
2022-08-10T02:36:33.109Z,1.20
2022-08-10T02:39:03.062Z,1.20
2022-08-10T02:45:12.480Z,1.15
2022-08-10T02:45:17.970Z,1.10
2022-08-10T02:47:55.947Z,1.40
2022-08-10T02:50:32.048Z,1.30
2022-08-10T02:53:06.761Z,1.20
2022-08-10T02:55:46.625Z,1.17
2022-08-10T02:58:33.155Z,1.20
2022-08-10T03:01:09.842Z,1.27
2022-08-10T03:04:09.318Z,1.17
2022-08-10T03:06:44.288Z,1.30
2022-08-10T03:12:35.507Z,1.30
2022-08-10T03:14:40.691Z,1.05
2022-08-10T03:17:13.662Z,1.55
2022-08-10T03:20:33.268Z,1.20
2022-08-10T03:22:41.283Z,1.20
2022-08-10T03:25:16.480Z,1.27
2022-08-10T03:30:29.601Z,1.38
2022-08-10T03:33:07.409Z,1.05
2022-08-10T03:36:43.365Z,1.40
2022-08-10T03:38:34.085Z,1.38
2022-08-10T03:41:08.063Z,1.25
2022-08-10T03:43:41.684Z,1.40
2022-08-10T05:56:22.156Z,1.38
2022-08-10T05:58:50.072Z,1.52
2022-08-10T06:02:31.477Z,1.33
2022-08-10T06:05:36.763Z,1.40
2022-08-10T06:08:12.569Z,1.33
2022-08-10T06:12:16.497Z,1.70
2022-08-10T06:13:59.817Z,1.60
2022-08-10T06:16:40.846Z,1.30
2022-08-10T06:19:10.248Z,1.17
2022-08-10T06:21:39.412Z,1.10
2022-08-10T06:24:25.469Z,1.10
2022-08-10T06:26:59.373Z,1.15
2022-08-10T06:29:30.867Z,1.00
2022-08-10T06:31:59.973Z,1.45
2022-08-10T06:34:32.038Z,1.00
2022-08-10T06:37:03.134Z,1.50
2022-08-10T06:39:34.590Z,0.93
2022-08-10T06:42:16.310Z,1.02
2022-08-10T06:44:56.833Z,1.20
2022-08-10T06:47:29.739Z,1.10
2022-08-10T06:50:02.793Z,1.05
2022-08-10T06:52:38.431Z,1.17
2022-08-10T06:55:10.335Z,1.10
2022-08-10T06:57:40.479Z,1.35
2022-08-10T07:00:10.056Z,1.30
2022-08-10T07:03:01.772Z,1.30
2022-08-10T07:05:38.318Z,1.13
2022-08-10T07:08:09.723Z,0.95
2022-08-10T07:10:41.260Z,0.90
2022-08-10T07:14:17.435Z,0.90
2022-08-10T07:16:08.381Z,1.10
2022-08-10T07:18:38.632Z,1.10
2022-08-10T07:21:08.131Z,1.30
2022-08-10T07:23:57.888Z,0.82
2022-08-10T08:32:40.603Z,0.98
2022-08-10T08:40:43.484Z,0.98
2022-08-10T08:44:48.031Z,0.93
2022-08-10T08:48:04.504Z,1.40
2022-08-10T08:50:14.743Z,0.73
2022-08-10T08:53:02.999Z,0.88
2022-08-10T08:56:06.112Z,1.10
2022-08-10T08:59:02.497Z,0.95
2022-08-10T09:01:58.621Z,1.05
2022-08-10T09:04:44.690Z,0.95
2022-08-10T09:07:39.528Z,1.02
2022-08-10T09:10:19.396Z,1.20
2022-08-10T09:13:01.519Z,1.10
2022-08-10T09:15:41.747Z,1.00
2022-08-10T09:18:21.532Z,1.02
2022-08-10T09:20:48.959Z,1.10
2022-08-10T09:24:01.808Z,0.90
2022-08-10T09:26:22.197Z,1.08
2022-08-10T09:29:11.906Z,0.93
2022-08-10T09:36:13.293Z,1.20
2022-08-10T09:36:25.566Z,0.90
2022-08-10T09:38:37.880Z,0.77
2022-08-10T09:41:35.996Z,0.95
2022-08-10T09:44:33.944Z,1.00
2022-08-10T09:48:10.729Z,0.90
2022-08-10T09:54:04.657Z,0.70
2022-08-10T09:56:59.809Z,0.98
2022-08-10T10:00:01.304Z,0.95
2022-08-10T10:02:44.204Z,0.90
2022-08-10T10:05:51.290Z,0.90
2022-08-10T10:08:42.318Z,1.08
2022-08-10T10:11:35.386Z,1.08
2022-08-10T10:14:30.508Z,1.20
2022-08-10T10:17:15.107Z,0.90
2022-08-10T10:20:09.778Z,1.15
2022-08-10T10:22:59.279Z,0.80
2022-08-10T10:25:50.340Z,1.20
2022-08-10T10:28:50.138Z,0.82
2022-08-10T10:31:38.440Z,1.00
2022-08-10T10:34:25.956Z,0.95
2022-08-10T10:36:57.932Z,0.90
2022-08-10T10:39:28.459Z,0.98
2022-08-10T10:42:45.096Z,0.93
2022-08-10T10:45:23.789Z,1.10
2022-08-10T10:48:17.774Z,1.15
2022-08-10T10:51:24.343Z,1.23
2022-08-10T10:54:13.488Z,1.00
2022-08-10T10:57:16.427Z,1.00
2022-08-10T11:00:11.337Z,0.95
2022-08-10T11:03:04.438Z,1.10
2022-08-10T11:05:55.222Z,1.10
2022-08-10T11:08:28.989Z,0.98
2022-08-10T11:12:01.885Z,1.08
2022-08-10T11:14:37.305Z,1.20
2022-08-10T11:17:49.497Z,1.05
2022-08-10T11:20:59.672Z,1.30
2022-08-10T11:24:42.676Z,1.10
2022-08-10T11:27:05.815Z,1.10
2022-08-10T11:29:49.955Z,1.10
2022-08-10T11:32:26.198Z,1.40
2022-08-10T11:35:18.886Z,1.20
2022-08-10T11:38:32.112Z,1.00
2022-08-10T11:41:05.576Z,1.10
2022-08-10T11:44:01.348Z,1.00
2022-08-10T11:46:35.031Z,1.10
2022-08-10T11:49:12.151Z,1.08
2022-08-10T11:51:48.079Z,1.33
2022-08-10T11:54:40.946Z,1.00
2022-08-10T11:57:10.537Z,1.10
2022-08-10T11:59:59.657Z,0.90
2022-08-10T12:02:31.536Z,1.20
2022-08-10T12:05:10.810Z,1.30
2022-08-10T12:08:54.767Z,1.30
2022-08-10T12:10:40.654Z,1.27
2022-08-10T12:13:11.679Z,1.30
2022-08-10T12:15:48.368Z,1.50
2022-08-10T12:18:24.213Z,0.90
2022-08-10T12:21:01.346Z,1.15
2022-08-10T12:23:48.231Z,1.05
2022-08-10T12:26:38.203Z,1.10
2022-08-10T12:29:25.481Z,1.15
2022-08-10T12:32:27.306Z,1.00
2022-08-10T12:35:12.348Z,1.00
2022-08-10T12:38:06.090Z,1.05
2022-08-10T12:40:42.268Z,1.05
2022-08-10T12:44:06.867Z,1.20
2022-08-10T12:46:18.501Z,1.20
2022-08-10T12:49:00.171Z,1.10
2022-08-10T12:51:30.531Z,1.40
2022-08-10T12:54:16.727Z,1.10
2022-08-10T12:57:10.385Z,1.08
2022-08-10T12:59:44.170Z,1.10
2022-08-10T13:02:21.595Z,1.50
2022-08-10T13:04:51.719Z,1.13
2022-08-10T13:08:25.393Z,1.15
2022-08-10T13:10:16.347Z,1.13
2022-08-10T13:12:48.901Z,1.30
2022-08-10T13:15:49.969Z,1.00
2022-08-10T13:18:28.917Z,1.20
2022-08-10T13:21:20.964Z,1.40
2022-08-10T13:24:04.094Z,1.10
2022-08-10T13:26:38.886Z,1.02
2022-08-10T13:29:33.269Z,1.02
2022-08-10T13:32:09.706Z,1.00
2022-08-10T13:34:45.727Z,1.05
2022-08-10T13:37:21.460Z,1.25
2022-08-10T13:39:59.108Z,1.20
2022-08-10T13:42:33.075Z,1.20
2022-08-10T13:45:16.510Z,1.35
2022-08-10T13:47:50.165Z,1.30
2022-08-10T13:50:33.310Z,1.20
2022-08-10T13:53:13.892Z,1.20
2022-08-10T13:56:01.656Z,1.20
2022-08-10T13:58:30.771Z,1.08
2022-08-10T14:01:10.140Z,1.13
2022-08-10T14:03:40.771Z,1.30
2022-08-10T14:06:15.449Z,1.10
2022-08-10T14:11:18.415Z,0.98
2022-08-10T14:13:53.186Z,1.10
2022-08-10T14:16:22.288Z,1.65
2022-08-10T14:18:57.014Z,1.30
2022-08-10T14:24:09.281Z,1.02
2022-08-10T14:26:50.708Z,1.13
2022-08-10T14:29:49.138Z,1.00
2022-08-10T14:32:19.044Z,1.15
2022-08-10T14:36:15.052Z,1.15
2022-08-10T14:37:50.874Z,1.20
2022-08-10T14:40:22.307Z,0.95
2022-08-10T14:42:52.817Z,1.10
2022-08-10T14:45:32.029Z,1.20
2022-08-10T14:48:10.084Z,1.10
2022-08-10T14:50:55.879Z,1.10
2022-08-10T14:53:36.547Z,1.08
2022-08-10T14:56:09.685Z,1.17
2022-08-10T14:59:06.054Z,1.00
2022-08-10T15:01:59.926Z,1.13
2022-08-10T15:04:24.804Z,1.38
2022-08-10T15:07:03.049Z,1.23
2022-08-10T15:10:01.445Z,1.38
2022-08-10T15:12:38.342Z,1.10
2022-08-10T15:15:18.057Z,1.33
2022-08-10T15:17:58.837Z,1.20
2022-08-10T15:20:29.804Z,1.15
2022-08-10T15:23:31.220Z,1.42
2022-08-10T15:26:10.965Z,1.10
2022-08-10T15:29:24.427Z,1.30
2022-08-10T15:31:56.476Z,1.30
2022-08-10T15:34:44.563Z,1.27
2022-08-10T15:37:36.801Z,1.10
2022-08-10T15:40:24.960Z,1.30
2022-08-10T15:43:05.719Z,1.23
2022-08-10T15:46:03.397Z,1.20
2022-08-10T15:48:48.743Z,1.10
2022-08-10T15:51:54.025Z,1.30
2022-08-10T15:54:54.411Z,1.40
2022-08-10T15:57:58.510Z,1.27
2022-08-10T16:02:03.952Z,1.20
2022-08-10T16:04:34.251Z,1.08
2022-08-10T16:07:49.857Z,1.20
2022-08-10T16:10:38.685Z,1.35
2022-08-10T16:13:50.953Z,1.27
2022-08-10T16:16:41.193Z,1.23
2022-08-10T16:19:23.915Z,1.20
2022-08-10T16:21:59.081Z,1.30
2022-08-10T16:24:31.860Z,1.20
2022-08-10T16:27:04.863Z,1.17
2022-08-10T16:29:56.057Z,1.35
2022-08-10T16:32:24.385Z,1.30
2022-08-10T16:34:53.920Z,1.20
2022-08-10T16:37:22.275Z,1.20
2022-08-10T16:39:57.686Z,1.23
2022-08-10T16:42:34.456Z,1.38
2022-08-10T16:45:15.108Z,1.20
2022-08-10T16:47:48.427Z,1.27
2022-08-10T16:50:23.220Z,1.10
2022-08-10T16:52:53.037Z,1.15
2022-08-10T16:55:48.836Z,1.00
2022-08-10T16:58:14.285Z,1.00
2022-08-10T17:00:49.514Z,1.15
2022-08-10T17:04:07.649Z,0.98
2022-08-10T17:06:30.513Z,1.15
2022-08-10T17:09:01.461Z,0.93
2022-08-10T17:11:33.512Z,0.95
2022-08-10T17:14:02.802Z,0.95
2022-08-10T17:16:41.761Z,1.10
2022-08-10T17:19:18.826Z,0.90
2022-08-10T17:21:52.327Z,1.00
2022-08-10T17:24:26.480Z,1.35
2022-08-10T17:26:57.710Z,1.20
2022-08-10T17:29:57.879Z,0.77
2022-08-10T17:32:43.932Z,0.70
2022-08-10T17:35:23.484Z,0.90
2022-08-10T17:38:13.298Z,0.95
2022-08-10T17:41:00.689Z,0.90
2022-08-10T17:43:46.117Z,1.00
2022-08-10T17:46:17.170Z,1.05
2022-08-10T17:48:44.747Z,1.00
2022-08-10T17:51:15.508Z,1.23
2022-08-10T17:53:47.536Z,1.02
2022-08-10T17:56:18.825Z,1.15
2022-08-10T17:58:51.287Z,1.13
2022-08-10T18:01:41.717Z,0.90
2022-08-10T18:04:19.316Z,1.10
2022-08-10T18:06:54.666Z,0.98
2022-08-10T18:09:33.057Z,0.98
2022-08-10T18:12:10.989Z,1.00
2022-08-10T18:14:49.672Z,1.10
2022-08-10T18:17:31.955Z,1.23
2022-08-10T18:20:07.836Z,1.02
2022-08-10T18:22:43.369Z,1.33
2022-08-10T18:25:18.403Z,1.08
2022-08-10T18:28:03.976Z,1.10
2022-08-10T18:30:45.108Z,1.00
2022-08-10T18:33:14.384Z,1.00
2022-08-10T18:35:45.056Z,1.10
2022-08-10T18:38:13.459Z,1.02
2022-08-10T18:40:51.042Z,1.00
2022-08-10T18:44:06.270Z,1.20
2022-08-10T18:46:16.442Z,1.00
2022-08-10T18:48:52.483Z,0.98
2022-08-10T18:51:27.042Z,1.10
2022-08-10T18:54:31.480Z,1.17
2022-08-10T18:57:32.245Z,1.00
2022-08-10T19:00:07.593Z,1.20
2022-08-10T19:02:44.845Z,1.00
2022-08-10T19:05:30.680Z,0.90
2022-08-10T19:08:30.241Z,1.00
2022-08-10T19:11:47.868Z,1.30
2022-08-10T19:14:27.226Z,1.30
2022-08-10T19:17:05.725Z,1.00
2022-08-10T19:20:02.170Z,1.00
2022-08-10T19:22:41.385Z,1.10
2022-08-10T19:26:39.383Z,1.10
2022-08-10T19:28:33.705Z,1.40
2022-08-10T19:31:44.373Z,0.90
2022-08-10T19:34:40.116Z,1.00
2022-08-10T19:37:10.494Z,1.08
2022-08-10T19:39:51.621Z,1.08
2022-08-10T19:42:31.081Z,1.40
2022-08-10T19:46:02.189Z,1.08
2022-08-10T19:48:41.194Z,1.50
2022-08-10T19:51:18.653Z,1.27
2022-08-10T19:54:23.557Z,0.88
2022-08-10T19:57:14.224Z,1.10
2022-08-10T20:00:19.176Z,1.25
2022-08-10T20:03:17.015Z,1.27
2022-08-10T20:06:13.394Z,1.10
2022-08-10T20:08:59.728Z,1.20
2022-08-10T20:11:46.380Z,1.52
2022-08-10T20:14:22.970Z,1.55
2022-08-10T20:16:56.046Z,1.20
2022-08-10T20:19:52.403Z,1.30
2022-08-10T20:22:29.237Z,1.58
2022-08-10T20:25:04.632Z,1.50
2022-08-10T20:27:57.796Z,1.20
2022-08-10T20:30:37.465Z,1.50
2022-08-10T20:33:29.301Z,1.50
2022-08-10T20:36:19.461Z,1.42
2022-08-10T20:39:01.938Z,1.30
2022-08-10T20:41:46.471Z,1.40
2022-08-10T20:44:29.191Z,1.40
2022-08-10T20:47:22.068Z,1.20
2022-08-10T20:50:01.312Z,1.42
2022-08-10T20:52:31.624Z,1.45
2022-08-10T20:55:02.895Z,1.50
2022-08-10T20:57:55.382Z,1.50
2022-08-10T21:00:48.895Z,1.30
2022-08-10T21:03:40.674Z,1.73
2022-08-10T21:06:43.366Z,1.75
2022-08-10T21:09:37.369Z,1.80
2022-08-10T21:12:30.335Z,1.50
2022-08-10T21:15:20.518Z,1.45
2022-08-10T21:17:50.695Z,1.33
2022-08-10T21:21:06.043Z,1.42
2022-08-10T21:23:38.427Z,1.45
2022-08-10T21:26:08.120Z,1.58
2022-08-10T21:29:13.357Z,1.38
2022-08-10T21:32:01.716Z,1.35
2022-08-10T21:34:32.122Z,1.33
2022-08-10T21:37:08.442Z,1.45
2022-08-10T21:39:44.703Z,1.63
2022-08-10T21:42:47.401Z,1.42
2022-08-10T21:45:59.173Z,1.70
2022-08-10T21:48:57.751Z,1.48
2022-08-10T21:52:00.609Z,1.83
2022-08-10T21:55:10.547Z,1.30
2022-08-10T21:57:59.293Z,1.20
2022-08-10T22:00:45.737Z,1.30
2022-08-10T22:03:39.287Z,1.60
2022-08-10T22:06:28.062Z,1.40
2022-08-10T22:09:21.903Z,1.30
2022-08-10T22:12:25.015Z,1.30
2022-08-10T22:16:09.950Z,1.40
2022-08-10T22:18:35.889Z,1.50
2022-08-10T22:21:50.438Z,1.60
2022-08-10T22:25:24.571Z,1.30
2022-08-10T22:29:20.759Z,1.50
2022-08-10T22:33:33.384Z,1.33
2022-08-10T22:42:09.470Z,1.40
2022-08-10T22:50:14.021Z,1.63
2022-08-10T22:53:34.703Z,1.70
2022-08-10T22:56:47.973Z,1.83
